Gran Bretagna — IBFB — position and weather

sailwx.info

Track history (hours):
 
Tides and Currents Weather Stations Pressure Air Temp Water Temp Dewpoint Dewpoint Depression Visibility Wind Speed Wind Dir Waves Ship Positions

Gran Bretagna

Last reported at 2017-Dec-11 15:14 UTC. Time now 2017-Dec-11 19:11 UTC.
Position N 49°54' W 002°26'.

Length 184 m; draft 8.3 m.

Type: Cargo ship. MMSI: 247290000.

Date/timePositionNaut miles runAvg speedWind from/ knotsBaromVisibWave heightAir tempDewpointWater temp
2017-Dec-11 15:14N 49°54' W 002°26'314.1
2017-Dec-11 15:00N 49°53' W 002°31'714.3
2017-Dec-11 14:30N 49°51' W 002°41'714.4
2017-Dec-11 14:00N 49°50' W 002°52'714.4
2017-Dec-11 13:30N 49°49' W 003°03'714.3
2017-Dec-11 13:00N 49°49' W 003°14'714.3
2017-Dec-11 12:30N 49°50' W 003°25'714.4
2017-Dec-11 12:00N 49°50' W 003°37'714.7
2017-Dec-11 11:30N 49°50' W 003°48'714.7
2017-Dec-11 11:00N 49°50' W 003°59'714.6
2017-Dec-11 10:30N 49°50' W 004°11'714.6
2017-Dec-11 10:00N 49°51' W 004°22'714.3
2017-Dec-11 09:30N 49°50' W 004°33'714.1
2017-Dec-11 09:00N 49°50' W 004°44'714.6
2017-Dec-11 08:30N 49°52' W 004°55'815.6
2017-Dec-11 08:00N 49°52' W 005°07'815.6
2017-Dec-11 07:30N 49°52' W 005°19'1015.1
2017-Dec-11 06:49N 49°53' W 005°35'1613.5
2017-Dec-11 05:35N 49°55' W 006°01'215.3
2017-Dec-11 05:29N 49°57' W 006°01'1016.4
2017-Dec-11 04:54N 50°06' W 006°02'616.6
2017-Dec-11 04:30N 50°13' W 006°02'816.3
2017-Dec-11 04:00N 50°21' W 006°03'8115.1
2017-Dec-10 22:37N 51°18' W 007°34'215.5
2017-Dec-10 22:30N 51°20' W 007°36'815.5
2017-Dec-10 22:00N 51°25' W 007°45'815.7
2017-Dec-10 21:30N 51°30' W 007°55'714.7
2017-Dec-10 21:00N 51°36' W 008°03'815.0
2017-Dec-10 20:30N 51°42' W 008°10'713.2
2017-Dec-10 20:00N 51°47' W 008°16'4 7.3
2017-Dec-10 19:30N 51°50' W 008°19'1 1.2
2017-Dec-10 18:58N 51°50' W 008°20'0 0.0
2017-Dec-10 18:28N 51°50' W 008°20'0 0.0
2017-Dec-10 17:58N 51°50' W 008°20'0 0.0
2017-Dec-10 17:28N 51°50' W 008°20'0 0.0
2017-Dec-10 16:58N 51°50' W 008°20'0 0.0
2017-Dec-10 16:28N 51°50' W 008°20'0 0.0
2017-Dec-10 15:58N 51°50' W 008°20'0 0.0
2017-Dec-10 15:28N 51°50' W 008°20'0 0.0
2017-Dec-10 14:58N 51°50' W 008°20'0 0.0
2017-Dec-10 14:28N 51°50' W 008°20'0 0.0
2017-Dec-10 13:58N 51°50' W 008°20'0 0.0
2017-Dec-10 13:28N 51°50' W 008°20'0 0.0
2017-Dec-10 12:58N 51°50' W 008°20'0 0.0
2017-Dec-10 12:28N 51°50' W 008°20'0 0.0
2017-Dec-10 11:58N 51°50' W 008°20'0 0.0
2017-Dec-10 11:28N 51°50' W 008°20'0 0.0
2017-Dec-10 10:58N 51°50' W 008°20'0 0.0
2017-Dec-10 10:28N 51°50' W 008°20'0 0.0
2017-Dec-10 09:58N 51°50' W 008°20'0 0.0
2017-Dec-10 09:28N 51°50' W 008°20'0 0.0
2017-Dec-10 08:58N 51°50' W 008°20'0 0.0
2017-Dec-10 08:28N 51°50' W 008°20'0 0.0
2017-Dec-10 08:01N 51°50' W 008°20'0 0.0
2017-Dec-10 07:31N 51°50' W 008°20'2 3.0
2017-Dec-10 07:01N 51°51' W 008°18'4 7.5
2017-Dec-10 06:31N 51°47' W 008°16'5 9.2
2017-Dec-10 06:01N 51°43' W 008°15'4 8.2
2017-Dec-10 05:31N 51°42' W 008°08'4 8.9
2017-Dec-10 05:00N 51°41' W 008°01'611.9
2017-Dec-10 04:31N 51°41' W 007°52'611.7
2017-Dec-10 04:01N 51°40' W 007°42'611.6
2017-Dec-10 03:31N 51°39' W 007°33'611.5
2017-Dec-10 03:01N 51°37' W 007°25'510.4
2017-Dec-10 02:30N 51°38' W 007°17'5 9.2
2017-Dec-10 02:00N 51°39' W 007°09'5412.5
2017-Dec-09 21:43N 51°32' W 005°44'313.8
2017-Dec-09 21:30N 51°31' W 005°39'713.6
2017-Dec-09 21:01N 51°30' W 005°29'713.4
2017-Dec-09 20:30N 51°29' W 005°18'713.0
2017-Dec-09 20:00N 51°27' W 005°08'612.7
2017-Dec-09 19:30N 51°25' W 004°58'612.9
2017-Dec-09 19:00N 51°23' W 004°48'613.0
2017-Dec-09 18:31N 51°21' W 004°38'713.1
2017-Dec-09 18:00N 51°21' W 004°28'713.6
2017-Dec-09 17:30N 51°22' W 004°17'913.8
2017-Dec-09 16:49N 51°21' W 004°02'414.4
2017-Dec-09 16:30N 51°21' W 003°55'1115.3
2017-Dec-09 15:47N 51°21' W 003°37'816.3
2017-Dec-09 15:16N 51°21' W 003°24'416.1
2017-Dec-09 15:00N 51°21' W 003°17'612.5
2017-Dec-09 14:30N 51°22' W 003°07'817.0
2017-Dec-09 14:01N 51°27' W 002°57'816.4
2017-Dec-09 13:31N 51°30' W 002°44'0 0.8
2017-Dec-09 13:01N 51°30' W 002°44'0 0.7
2017-Dec-09 12:31N 51°30' W 002°43'0 0.2
2017-Dec-09 12:00N 51°30' W 002°43'0 0.0
2017-Dec-09 11:30N 51°30' W 002°43'0 0.0
2017-Dec-09 11:00N 51°30' W 002°43'0 0.0
2017-Dec-09 10:30N 51°30' W 002°43'0 0.0
2017-Dec-09 10:00N 51°30' W 002°43'0 0.0
2017-Dec-09 09:30N 51°30' W 002°43'0 0.0
2017-Dec-09 09:00N 51°30' W 002°43'0 0.0
2017-Dec-09 08:30N 51°30' W 002°43'0 0.0
2017-Dec-09 08:00N 51°30' W 002°43'0 0.0
2017-Dec-09 07:30N 51°30' W 002°43'0 0.0
2017-Dec-09 07:00N 51°30' W 002°43'0 0.0
2017-Dec-09 06:30N 51°30' W 002°43'0 0.0
2017-Dec-09 06:00N 51°30' W 002°43'0 0.0
2017-Dec-09 05:30N 51°30' W 002°43'0 0.0
2017-Dec-09 05:00N 51°30' W 002°43'0 0.0
2017-Dec-09 04:30N 51°30' W 002°43'0 0.0
2017-Dec-09 04:00N 51°30' W 002°43'0 0.0
2017-Dec-09 03:30N 51°30' W 002°43'0 0.0
2017-Dec-09 03:00N 51°30' W 002°43'0 0.0
2017-Dec-09 02:30N 51°30' W 002°43'0 0.0
2017-Dec-09 02:00N 51°30' W 002°43'0 0.0
2017-Dec-09 01:30N 51°30' W 002°43'0 0.0
2017-Dec-09 01:00N 51°30' W 002°43'0 0.0
2017-Dec-09 00:30N 51°30' W 002°43'0 0.0
2017-Dec-09 00:01N 51°30' W 002°43'0 0.7
2017-Dec-08 23:31N 51°30' W 002°43'0 0.5
2017-Dec-08 23:00N 51°30' W 002°44'3 5.5
2017-Dec-08 22:30N 51°29' W 002°48'917.6
2017-Dec-08 22:00N 51°26' W 003°01'815.6
2017-Dec-08 21:30N 51°21' W 003°12'1417.9
2017-Dec-08 20:42N 51°21' W 003°34'1019.9
2017-Dec-08 20:13N 51°19' W 003°50'419.8
2017-Dec-08 20:00N 51°19' W 003°56'1019.8
2017-Dec-08 19:30N 51°16' W 004°12'1019.3
2017-Dec-08 19:00N 51°12' W 004°26'918.3
2017-Dec-08 18:30N 51°06' W 004°36'917.3
2017-Dec-08 18:00N 50°59' W 004°45'816.6
2017-Dec-08 17:30N 50°54' W 004°55'816.4
2017-Dec-08 17:00N 50°48' W 005°05'816.1
2017-Dec-08 16:30N 50°43' W 005°14'815.5
2017-Dec-08 16:00N 50°38' W 005°24'815.7
2017-Dec-08 15:30N 50°33' W 005°33'815.5
2017-Dec-08 15:00N 50°28' W 005°42'815.2
2017-Dec-08 14:30N 50°23' W 005°51'814.4
2017-Dec-08 13:57N 50°15' W 005°53'814.3
2017-Dec-08 13:23N 50°07' W 005°53'66516.5
2017-Dec-06 21:03N 39°23' W 009°49'118.0
2017-Dec-06 21:01N 39°23' W 009°49'  
2017-Dec-03 08:32N 39°17' E 001°25'115.6
2017-Dec-03 08:28N 39°17' E 001°26'915.9
2017-Dec-03 07:54N 39°14' E 001°38'2616.0
2017-Dec-03 06:15N 39°08' E 002°11'416.4
2017-Dec-03 06:00N 39°07' E 002°16'1016.7
2017-Dec-03 05:26N 39°04' E 002°28'717.0
2017-Dec-03 05:00N 39°03' E 002°37'1916.7
2017-Dec-03 03:53N 38°60' E 003°01'26514.1
2017-Dec-02 09:08N 38°44' E 008°40'216.2
2017-Dec-02 09:00N 38°44' E 008°43'816.5
2017-Dec-02 08:30N 38°45' E 008°54'917.3
2017-Dec-02 08:00N 38°48' E 009°04'817.3
2017-Dec-02 07:30N 38°51' E 009°14'917.3
2017-Dec-02 06:58N 38°55' E 009°25'24717.9
2017-Dec-01 17:10N 40°30' E 014°21'318.5
2017-Dec-01 17:00N 40°32' E 014°24'  
Track history (hours):
 
Tides and Currents Weather Stations Pressure Air Temp Water Temp Dewpoint Dewpoint Depression Visibility Wind Speed Wind Dir Waves Ship Positions

Gran Bretagna

Last reported at 2017-Dec-11 15:14 UTC. Time now 2017-Dec-11 19:11 UTC.
Position N 49°54' W 002°26'.

Length 184 m; draft 8.3 m.

Type: Cargo ship. MMSI: 247290000.

Date/timePositionNaut miles runAvg speedWind from/ knotsBaromVisibWave heightAir tempDewpointWater temp
2017-Dec-11 15:14N 49°54' W 002°26'314.1
2017-Dec-11 15:00N 49°53' W 002°31'714.3
2017-Dec-11 14:30N 49°51' W 002°41'714.4
2017-Dec-11 14:00N 49°50' W 002°52'714.4
2017-Dec-11 13:30N 49°49' W 003°03'714.3
2017-Dec-11 13:00N 49°49' W 003°14'714.3
2017-Dec-11 12:30N 49°50' W 003°25'714.4
2017-Dec-11 12:00N 49°50' W 003°37'714.7
2017-Dec-11 11:30N 49°50' W 003°48'714.7
2017-Dec-11 11:00N 49°50' W 003°59'714.6
2017-Dec-11 10:30N 49°50' W 004°11'714.6
2017-Dec-11 10:00N 49°51' W 004°22'714.3
2017-Dec-11 09:30N 49°50' W 004°33'714.1
2017-Dec-11 09:00N 49°50' W 004°44'714.6
2017-Dec-11 08:30N 49°52' W 004°55'815.6
2017-Dec-11 08:00N 49°52' W 005°07'815.6
2017-Dec-11 07:30N 49°52' W 005°19'1015.1
2017-Dec-11 06:49N 49°53' W 005°35'1613.5
2017-Dec-11 05:35N 49°55' W 006°01'215.3
2017-Dec-11 05:29N 49°57' W 006°01'1016.4
2017-Dec-11 04:54N 50°06' W 006°02'616.6
2017-Dec-11 04:30N 50°13' W 006°02'816.3
2017-Dec-11 04:00N 50°21' W 006°03'8115.1
2017-Dec-10 22:37N 51°18' W 007°34'215.5
2017-Dec-10 22:30N 51°20' W 007°36'815.5
2017-Dec-10 22:00N 51°25' W 007°45'815.7
2017-Dec-10 21:30N 51°30' W 007°55'714.7
2017-Dec-10 21:00N 51°36' W 008°03'815.0
2017-Dec-10 20:30N 51°42' W 008°10'713.2
2017-Dec-10 20:00N 51°47' W 008°16'4 7.3
2017-Dec-10 19:30N 51°50' W 008°19'1 1.2
2017-Dec-10 18:58N 51°50' W 008°20'0 0.0
2017-Dec-10 18:28N 51°50' W 008°20'0 0.0
2017-Dec-10 17:58N 51°50' W 008°20'0 0.0
2017-Dec-10 17:28N 51°50' W 008°20'0 0.0
2017-Dec-10 16:58N 51°50' W 008°20'0 0.0
2017-Dec-10 16:28N 51°50' W 008°20'0 0.0
2017-Dec-10 15:58N 51°50' W 008°20'0 0.0
2017-Dec-10 15:28N 51°50' W 008°20'0 0.0
2017-Dec-10 14:58N 51°50' W 008°20'0 0.0
2017-Dec-10 14:28N 51°50' W 008°20'0 0.0
2017-Dec-10 13:58N 51°50' W 008°20'0 0.0
2017-Dec-10 13:28N 51°50' W 008°20'0 0.0
2017-Dec-10 12:58N 51°50' W 008°20'0 0.0
2017-Dec-10 12:28N 51°50' W 008°20'0 0.0
2017-Dec-10 11:58N 51°50' W 008°20'0 0.0
2017-Dec-10 11:28N 51°50' W 008°20'0 0.0
2017-Dec-10 10:58N 51°50' W 008°20'0 0.0
2017-Dec-10 10:28N 51°50' W 008°20'0 0.0
2017-Dec-10 09:58N 51°50' W 008°20'0 0.0
2017-Dec-10 09:28N 51°50' W 008°20'0 0.0
2017-Dec-10 08:58N 51°50' W 008°20'0 0.0
2017-Dec-10 08:28N 51°50' W 008°20'0 0.0
2017-Dec-10 08:01N 51°50' W 008°20'0 0.0
2017-Dec-10 07:31N 51°50' W 008°20'2 3.0
2017-Dec-10 07:01N 51°51' W 008°18'4 7.5
2017-Dec-10 06:31N 51°47' W 008°16'5 9.2
2017-Dec-10 06:01N 51°43' W 008°15'4 8.2
2017-Dec-10 05:31N 51°42' W 008°08'4 8.9
2017-Dec-10 05:00N 51°41' W 008°01'611.9
2017-Dec-10 04:31N 51°41' W 007°52'611.7
2017-Dec-10 04:01N 51°40' W 007°42'611.6
2017-Dec-10 03:31N 51°39' W 007°33'611.5
2017-Dec-10 03:01N 51°37' W 007°25'510.4
2017-Dec-10 02:30N 51°38' W 007°17'5 9.2
2017-Dec-10 02:00N 51°39' W 007°09'5412.5
2017-Dec-09 21:43N 51°32' W 005°44'313.8
2017-Dec-09 21:30N 51°31' W 005°39'713.6
2017-Dec-09 21:01N 51°30' W 005°29'713.4
2017-Dec-09 20:30N 51°29' W 005°18'713.0
2017-Dec-09 20:00N 51°27' W 005°08'612.7
2017-Dec-09 19:30N 51°25' W 004°58'612.9
2017-Dec-09 19:00N 51°23' W 004°48'613.0
2017-Dec-09 18:31N 51°21' W 004°38'713.1
2017-Dec-09 18:00N 51°21' W 004°28'713.6
2017-Dec-09 17:30N 51°22' W 004°17'913.8
2017-Dec-09 16:49N 51°21' W 004°02'414.4
2017-Dec-09 16:30N 51°21' W 003°55'1115.3
2017-Dec-09 15:47N 51°21' W 003°37'816.3
2017-Dec-09 15:16N 51°21' W 003°24'416.1
2017-Dec-09 15:00N 51°21' W 003°17'612.5
2017-Dec-09 14:30N 51°22' W 003°07'817.0
2017-Dec-09 14:01N 51°27' W 002°57'816.4
2017-Dec-09 13:31N 51°30' W 002°44'0 0.8
2017-Dec-09 13:01N 51°30' W 002°44'0 0.7
2017-Dec-09 12:31N 51°30' W 002°43'0 0.2
2017-Dec-09 12:00N 51°30' W 002°43'0 0.0
2017-Dec-09 11:30N 51°30' W 002°43'0 0.0
2017-Dec-09 11:00N 51°30' W 002°43'0 0.0
2017-Dec-09 10:30N 51°30' W 002°43'0 0.0
2017-Dec-09 10:00N 51°30' W 002°43'0 0.0
2017-Dec-09 09:30N 51°30' W 002°43'0 0.0
2017-Dec-09 09:00N 51°30' W 002°43'0 0.0
2017-Dec-09 08:30N 51°30' W 002°43'0 0.0
2017-Dec-09 08:00N 51°30' W 002°43'0 0.0
2017-Dec-09 07:30N 51°30' W 002°43'0 0.0
2017-Dec-09 07:00N 51°30' W 002°43'0 0.0
2017-Dec-09 06:30N 51°30' W 002°43'0 0.0
2017-Dec-09 06:00N 51°30' W 002°43'0 0.0
2017-Dec-09 05:30N 51°30' W 002°43'0 0.0
2017-Dec-09 05:00N 51°30' W 002°43'0 0.0
2017-Dec-09 04:30N 51°30' W 002°43'0 0.0
2017-Dec-09 04:00N 51°30' W 002°43'0 0.0
2017-Dec-09 03:30N 51°30' W 002°43'0 0.0
2017-Dec-09 03:00N 51°30' W 002°43'0 0.0
2017-Dec-09 02:30N 51°30' W 002°43'0 0.0
2017-Dec-09 02:00N 51°30' W 002°43'0 0.0
2017-Dec-09 01:30N 51°30' W 002°43'0 0.0
2017-Dec-09 01:00N 51°30' W 002°43'0 0.0
2017-Dec-09 00:30N 51°30' W 002°43'0 0.0
2017-Dec-09 00:01N 51°30' W 002°43'0 0.7
2017-Dec-08 23:31N 51°30' W 002°43'0 0.5
2017-Dec-08 23:00N 51°30' W 002°44'3 5.5
2017-Dec-08 22:30N 51°29' W 002°48'917.6
2017-Dec-08 22:00N 51°26' W 003°01'815.6
2017-Dec-08 21:30N 51°21' W 003°12'1417.9
2017-Dec-08 20:42N 51°21' W 003°34'1019.9
2017-Dec-08 20:13N 51°19' W 003°50'419.8
2017-Dec-08 20:00N 51°19' W 003°56'1019.8
2017-Dec-08 19:30N 51°16' W 004°12'1019.3
2017-Dec-08 19:00N 51°12' W 004°26'918.3
2017-Dec-08 18:30N 51°06' W 004°36'917.3
2017-Dec-08 18:00N 50°59' W 004°45'816.6
2017-Dec-08 17:30N 50°54' W 004°55'816.4
2017-Dec-08 17:00N 50°48' W 005°05'816.1
2017-Dec-08 16:30N 50°43' W 005°14'815.5
2017-Dec-08 16:00N 50°38' W 005°24'815.7
2017-Dec-08 15:30N 50°33' W 005°33'815.5
2017-Dec-08 15:00N 50°28' W 005°42'815.2
2017-Dec-08 14:30N 50°23' W 005°51'814.4
2017-Dec-08 13:57N 50°15' W 005°53'814.3
2017-Dec-08 13:23N 50°07' W 005°53'66516.5
2017-Dec-06 21:03N 39°23' W 009°49'118.0
2017-Dec-06 21:01N 39°23' W 009°49'  
2017-Dec-03 08:32N 39°17' E 001°25'115.6
2017-Dec-03 08:28N 39°17' E 001°26'915.9
2017-Dec-03 07:54N 39°14' E 001°38'2616.0
2017-Dec-03 06:15N 39°08' E 002°11'416.4
2017-Dec-03 06:00N 39°07' E 002°16'1016.7
2017-Dec-03 05:26N 39°04' E 002°28'717.0
2017-Dec-03 05:00N 39°03' E 002°37'1916.7
2017-Dec-03 03:53N 38°60' E 003°01'26514.1
2017-Dec-02 09:08N 38°44' E 008°40'216.2
2017-Dec-02 09:00N 38°44' E 008°43'816.5
2017-Dec-02 08:30N 38°45' E 008°54'917.3
2017-Dec-02 08:00N 38°48' E 009°04'817.3
2017-Dec-02 07:30N 38°51' E 009°14'917.3
2017-Dec-02 06:58N 38°55' E 009°25'24717.9
2017-Dec-01 17:10N 40°30' E 014°21'318.5
2017-Dec-01 17:00N 40°32' E 014°24'  

Dump ship's entire track history